sensor_id;sensor_type;location;lat;lon;timestamp;P1;durP1;ratioP1;P2;durP2;ratioP2
69369;SDS011;56530;42.640;23.372;2023-07-20T00:01:13;10.38;;;3.03;;
69369;SDS011;56530;42.640;23.372;2023-07-20T00:03:38;4.90;;;2.83;;
69369;SDS011;56530;42.640;23.372;2023-07-20T00:06:04;7.57;;;2.63;;
69369;SDS011;56530;42.640;23.372;2023-07-20T00:08:29;6.53;;;2.80;;
69369;SDS011;56530;42.640;23.372;2023-07-20T00:10:55;9.07;;;3.10;;
69369;SDS011;56530;42.640;23.372;2023-07-20T00:13:20;6.87;;;2.97;;
69369;SDS011;56530;42.640;23.372;2023-07-20T00:15:46;6.65;;;3.08;;
69369;SDS011;56530;42.640;23.372;2023-07-20T00:18:11;9.32;;;3.22;;
69369;SDS011;56530;42.640;23.372;2023-07-20T00:20:37;7.03;;;3.40;;
69369;SDS011;56530;42.640;23.372;2023-07-20T00:23:03;9.47;;;3.53;;
69369;SDS011;56530;42.640;23.372;2023-07-20T00:25:28;9.17;;;2.90;;
69369;SDS011;56530;42.640;23.372;2023-07-20T00:27:54;8.93;;;3.20;;
69369;SDS011;56530;42.640;23.372;2023-07-20T00:30:19;9.10;;;3.37;;
69369;SDS011;56530;42.640;23.372;2023-07-20T00:32:45;7.93;;;3.33;;
69369;SDS011;56530;42.640;23.372;2023-07-20T00:35:10;11.73;;;3.43;;
69369;SDS011;56530;42.640;23.372;2023-07-20T00:37:36;8.20;;;3.10;;
69369;SDS011;56530;42.640;23.372;2023-07-20T00:40:02;8.67;;;3.40;;
69369;SDS011;56530;42.640;23.372;2023-07-20T00:42:30;7.68;;;2.97;;
69369;SDS011;56530;42.640;23.372;2023-07-20T00:44:56;8.83;;;3.60;;
69369;SDS011;56530;42.640;23.372;2023-07-20T00:47:21;7.20;;;3.30;;
69369;SDS011;56530;42.640;23.372;2023-07-20T00:49:47;11.43;;;3.33;;
69369;SDS011;56530;42.640;23.372;2023-07-20T00:52:13;12.65;;;3.15;;
69369;SDS011;56530;42.640;23.372;2023-07-20T00:54:39;6.72;;;2.83;;
69369;SDS011;56530;42.640;23.372;2023-07-20T00:57:05;10.90;;;3.20;;
69369;SDS011;56530;42.640;23.372;2023-07-20T00:59:32;8.37;;;3.13;;
69369;SDS011;56530;42.640;23.372;2023-07-20T01:01:58;8.27;;;3.28;;
69369;SDS011;56530;42.640;23.372;2023-07-20T01:04:23;10.20;;;3.20;;
69369;SDS011;56530;42.640;23.372;2023-07-20T01:07:03;6.80;;;3.08;;
69369;SDS011;56530;42.640;23.372;2023-07-20T01:15:06;7.00;;;2.70;;
69369;SDS011;56530;42.640;23.372;2023-07-20T01:17:33;9.02;;;2.63;;
69369;SDS011;56530;42.640;23.372;2023-07-20T01:19:59;7.50;;;2.70;;
69369;SDS011;56530;42.640;23.372;2023-07-20T01:30:44;7.53;;;3.05;;
69369;SDS011;56530;42.640;23.372;2023-07-20T01:33:17;13.60;;;3.10;;
69369;SDS011;56530;42.640;23.372;2023-07-20T01:35:44;7.68;;;2.70;;
69369;SDS011;56530;42.640;23.372;2023-07-20T01:38:12;8.93;;;2.87;;
69369;SDS011;56530;42.640;23.372;2023-07-20T01:40:38;7.63;;;3.05;;
69369;SDS011;56530;42.640;23.372;2023-07-20T01:43:05;9.32;;;3.35;;
69369;SDS011;56530;42.640;23.372;2023-07-20T01:45:30;6.17;;;3.53;;
69369;SDS011;56530;42.640;23.372;2023-07-20T01:47:55;12.97;;;4.07;;
69369;SDS011;56530;42.640;23.372;2023-07-20T01:50:21;8.75;;;4.32;;
69369;SDS011;56530;42.640;23.372;2023-07-20T01:52:47;7.90;;;2.87;;
69369;SDS011;56530;42.640;23.372;2023-07-20T01:55:14;14.37;;;3.53;;
69369;SDS011;56530;42.640;23.372;2023-07-20T01:57:39;7.47;;;2.80;;
69369;SDS011;56530;42.640;23.372;2023-07-20T02:00:05;12.90;;;2.87;;
69369;SDS011;56530;42.640;23.372;2023-07-20T02:02:33;6.00;;;2.80;;
69369;SDS011;56530;42.640;23.372;2023-07-20T02:04:59;8.60;;;3.08;;
69369;SDS011;56530;42.640;23.372;2023-07-20T02:07:24;6.37;;;2.43;;
69369;SDS011;56530;42.640;23.372;2023-07-20T02:09:50;6.73;;;2.57;;
69369;SDS011;56530;42.640;23.372;2023-07-20T02:12:15;9.93;;;3.00;;
69369;SDS011;56530;42.640;23.372;2023-07-20T02:14:41;9.97;;;3.73;;
69369;SDS011;56530;42.640;23.372;2023-07-20T02:17:07;10.00;;;3.35;;
69369;SDS011;56530;42.640;23.372;2023-07-20T02:19:32;7.87;;;3.10;;
69369;SDS011;56530;42.640;23.372;2023-07-20T02:21:57;5.57;;;2.30;;
69369;SDS011;56530;42.640;23.372;2023-07-20T02:24:23;9.43;;;3.25;;
69369;SDS011;56530;42.640;23.372;2023-07-20T02:26:50;8.57;;;3.10;;
69369;SDS011;56530;42.640;23.372;2023-07-20T02:29:15;9.93;;;3.00;;
69369;SDS011;56530;42.640;23.372;2023-07-20T02:31:40;7.95;;;3.03;;
69369;SDS011;56530;42.640;23.372;2023-07-20T02:34:08;6.65;;;3.65;;
69369;SDS011;56530;42.640;23.372;2023-07-20T02:36:34;8.40;;;3.03;;
69369;SDS011;56530;42.640;23.372;2023-07-20T02:39:00;7.20;;;3.10;;
69369;SDS011;56530;42.640;23.372;2023-07-20T02:41:27;5.80;;;3.22;;
69369;SDS011;56530;42.640;23.372;2023-07-20T02:43:52;5.85;;;2.50;;
69369;SDS011;56530;42.640;23.372;2023-07-20T02:46:18;8.00;;;2.97;;
69369;SDS011;56530;42.640;23.372;2023-07-20T02:48:43;8.40;;;3.50;;
69369;SDS011;56530;42.640;23.372;2023-07-20T02:51:08;9.40;;;3.33;;
69369;SDS011;56530;42.640;23.372;2023-07-20T02:53:34;7.17;;;3.03;;
69369;SDS011;56530;42.640;23.372;2023-07-20T02:55:59;6.00;;;3.30;;
69369;SDS011;56530;42.640;23.372;2023-07-20T02:58:25;6.70;;;3.40;;
69369;SDS011;56530;42.640;23.372;2023-07-20T03:00:50;6.40;;;3.22;;
69369;SDS011;56530;42.640;23.372;2023-07-20T03:03:16;10.40;;;3.28;;
69369;SDS011;56530;42.640;23.372;2023-07-20T03:05:41;6.27;;;3.30;;
69369;SDS011;56530;42.640;23.372;2023-07-20T03:08:07;7.53;;;3.50;;
69369;SDS011;56530;42.640;23.372;2023-07-20T03:10:32;6.95;;;2.92;;
69369;SDS011;56530;42.640;23.372;2023-07-20T03:12:58;8.10;;;3.20;;
69369;SDS011;56530;42.640;23.372;2023-07-20T03:15:23;7.75;;;2.97;;
69369;SDS011;56530;42.640;23.372;2023-07-20T03:17:49;6.95;;;3.28;;
69369;SDS011;56530;42.640;23.372;2023-07-20T03:20:15;8.80;;;3.30;;
69369;SDS011;56530;42.640;23.372;2023-07-20T03:22:40;8.13;;;3.30;;
69369;SDS011;56530;42.640;23.372;2023-07-20T03:25:06;9.87;;;4.10;;
69369;SDS011;56530;42.640;23.372;2023-07-20T03:27:32;6.87;;;3.07;;
69369;SDS011;56530;42.640;23.372;2023-07-20T03:29:57;7.53;;;3.20;;
69369;SDS011;56530;42.640;23.372;2023-07-20T03:32:22;6.40;;;3.07;;
69369;SDS011;56530;42.640;23.372;2023-07-20T03:34:48;8.03;;;3.33;;
69369;SDS011;56530;42.640;23.372;2023-07-20T03:37:13;10.73;;;3.50;;
69369;SDS011;56530;42.640;23.372;2023-07-20T03:39:39;8.43;;;3.60;;
69369;SDS011;56530;42.640;23.372;2023-07-20T03:42:04;11.03;;;3.50;;
69369;SDS011;56530;42.640;23.372;2023-07-20T03:44:31;6.90;;;3.40;;
69369;SDS011;56530;42.640;23.372;2023-07-20T03:46:56;6.57;;;3.37;;
69369;SDS011;56530;42.640;23.372;2023-07-20T03:49:22;9.63;;;3.67;;
69369;SDS011;56530;42.640;23.372;2023-07-20T03:51:48;9.50;;;3.57;;
69369;SDS011;56530;42.640;23.372;2023-07-20T03:54:13;13.17;;;3.93;;
69369;SDS011;56530;42.640;23.372;2023-07-20T03:56:38;8.97;;;3.40;;
69369;SDS011;56530;42.640;23.372;2023-07-20T03:59:04;9.15;;;3.67;;
69369;SDS011;56530;42.640;23.372;2023-07-20T04:01:29;9.45;;;3.50;;
69369;SDS011;56530;42.640;23.372;2023-07-20T04:03:55;10.07;;;4.00;;
69369;SDS011;56530;42.640;23.372;2023-07-20T04:06:21;13.53;;;4.43;;
69369;SDS011;56530;42.640;23.372;2023-07-20T04:08:46;13.07;;;4.50;;
69369;SDS011;56530;42.640;23.372;2023-07-20T04:11:14;9.77;;;3.70;;
69369;SDS011;56530;42.640;23.372;2023-07-20T04:13:40;17.35;;;4.68;;
69369;SDS011;56530;42.640;23.372;2023-07-20T04:16:06;11.35;;;4.15;;
69369;SDS011;56530;42.640;23.372;2023-07-20T04:18:31;11.52;;;4.82;;
69369;SDS011;56530;42.640;23.372;2023-07-20T04:20:57;10.63;;;4.17;;
69369;SDS011;56530;42.640;23.372;2023-07-20T04:23:22;10.50;;;4.23;;
69369;SDS011;56530;42.640;23.372;2023-07-20T04:25:47;11.50;;;4.00;;
69369;SDS011;56530;42.640;23.372;2023-07-20T04:28:13;9.23;;;4.47;;
69369;SDS011;56530;42.640;23.372;2023-07-20T04:30:38;12.37;;;4.07;;
69369;SDS011;56530;42.640;23.372;2023-07-20T04:33:05;11.40;;;4.47;;
69369;SDS011;56530;42.640;23.372;2023-07-20T04:35:50;12.83;;;4.13;;
69369;SDS011;56530;42.640;23.372;2023-07-20T04:38:17;9.32;;;3.83;;
69369;SDS011;56530;42.640;23.372;2023-07-20T04:40:46;8.63;;;4.00;;
69369;SDS011;56530;42.640;23.372;2023-07-20T04:43:14;13.57;;;4.97;;
69369;SDS011;56530;42.640;23.372;2023-07-20T04:45:41;11.20;;;4.90;;
69369;SDS011;56530;42.640;23.372;2023-07-20T04:48:08;9.83;;;4.63;;
69369;SDS011;56530;42.640;23.372;2023-07-20T04:50:38;11.98;;;4.25;;
69369;SDS011;56530;42.640;23.372;2023-07-20T04:53:05;12.83;;;4.27;;
69369;SDS011;56530;42.640;23.372;2023-07-20T04:55:30;10.50;;;4.40;;
69369;SDS011;56530;42.640;23.372;2023-07-20T04:57:56;11.23;;;3.87;;
69369;SDS011;56530;42.640;23.372;2023-07-20T05:00:21;9.40;;;4.40;;
69369;SDS011;56530;42.640;23.372;2023-07-20T05:02:47;8.23;;;4.00;;
69369;SDS011;56530;42.640;23.372;2023-07-20T05:05:15;8.32;;;4.78;;
69369;SDS011;56530;42.640;23.372;2023-07-20T05:07:41;11.50;;;4.00;;
69369;SDS011;56530;42.640;23.372;2023-07-20T05:10:06;11.30;;;4.07;;
69369;SDS011;56530;42.640;23.372;2023-07-20T05:12:32;9.00;;;4.75;;
69369;SDS011;56530;42.640;23.372;2023-07-20T05:14:57;11.33;;;4.37;;
69369;SDS011;56530;42.640;23.372;2023-07-20T05:17:23;9.93;;;4.80;;
69369;SDS011;56530;42.640;23.372;2023-07-20T05:19:49;11.80;;;4.25;;
69369;SDS011;56530;42.640;23.372;2023-07-20T05:22:15;17.25;;;10.98;;
69369;SDS011;56530;42.640;23.372;2023-07-20T05:24:41;9.30;;;4.83;;
69369;SDS011;56530;42.640;23.372;2023-07-20T05:27:06;10.97;;;4.20;;
69369;SDS011;56530;42.640;23.372;2023-07-20T05:29:32;9.50;;;4.30;;
69369;SDS011;56530;42.640;23.372;2023-07-20T05:31:58;6.75;;;3.88;;
69369;SDS011;56530;42.640;23.372;2023-07-20T05:34:23;11.43;;;4.47;;
69369;SDS011;56530;42.640;23.372;2023-07-20T05:36:49;7.10;;;4.07;;
69369;SDS011;56530;42.640;23.372;2023-07-20T05:39:16;10.88;;;4.43;;
69369;SDS011;56530;42.640;23.372;2023-07-20T05:41:42;12.30;;;4.00;;
69369;SDS011;56530;42.640;23.372;2023-07-20T05:44:08;9.80;;;3.47;;
69369;SDS011;56530;42.640;23.372;2023-07-20T05:46:33;7.20;;;3.20;;
69369;SDS011;56530;42.640;23.372;2023-07-20T05:48:58;10.30;;;3.87;;
69369;SDS011;56530;42.640;23.372;2023-07-20T05:51:24;9.37;;;3.53;;
69369;SDS011;56530;42.640;23.372;2023-07-20T05:53:49;6.60;;;3.37;;
69369;SDS011;56530;42.640;23.372;2023-07-20T05:56:15;6.57;;;4.00;;
69369;SDS011;56530;42.640;23.372;2023-07-20T05:58:40;6.87;;;3.60;;
69369;SDS011;56530;42.640;23.372;2023-07-20T06:01:05;9.90;;;4.40;;
69369;SDS011;56530;42.640;23.372;2023-07-20T06:03:31;10.75;;;4.65;;
69369;SDS011;56530;42.640;23.372;2023-07-20T06:06:01;9.57;;;3.85;;
69369;SDS011;56530;42.640;23.372;2023-07-20T06:08:29;9.98;;;4.38;;
69369;SDS011;56530;42.640;23.372;2023-07-20T06:10:55;10.43;;;4.00;;
69369;SDS011;56530;42.640;23.372;2023-07-20T06:13:20;8.13;;;3.73;;
69369;SDS011;56530;42.640;23.372;2023-07-20T06:15:46;8.27;;;3.90;;
69369;SDS011;56530;42.640;23.372;2023-07-20T06:18:12;7.93;;;3.85;;
69369;SDS011;56530;42.640;23.372;2023-07-20T06:20:38;10.20;;;4.10;;
69369;SDS011;56530;42.640;23.372;2023-07-20T06:23:03;9.97;;;3.80;;
69369;SDS011;56530;42.640;23.372;2023-07-20T06:25:29;12.93;;;4.07;;
69369;SDS011;56530;42.640;23.372;2023-07-20T06:27:55;10.87;;;3.60;;
69369;SDS011;56530;42.640;23.372;2023-07-20T06:30:20;11.38;;;4.53;;
69369;SDS011;56530;42.640;23.372;2023-07-20T06:32:46;10.17;;;4.00;;
69369;SDS011;56530;42.640;23.372;2023-07-20T06:35:12;12.03;;;4.40;;
69369;SDS011;56530;42.640;23.372;2023-07-20T06:37:37;8.77;;;4.13;;
69369;SDS011;56530;42.640;23.372;2023-07-20T06:40:03;11.88;;;4.07;;
69369;SDS011;56530;42.640;23.372;2023-07-20T06:42:29;9.55;;;4.03;;
69369;SDS011;56530;42.640;23.372;2023-07-20T06:44:55;11.77;;;4.10;;
69369;SDS011;56530;42.640;23.372;2023-07-20T06:47:20;9.25;;;3.80;;
69369;SDS011;56530;42.640;23.372;2023-07-20T06:49:45;9.47;;;3.50;;
69369;SDS011;56530;42.640;23.372;2023-07-20T06:52:11;13.00;;;4.00;;
69369;SDS011;56530;42.640;23.372;2023-07-20T06:54:36;11.45;;;4.15;;
69369;SDS011;56530;42.640;23.372;2023-07-20T06:57:02;14.10;;;5.20;;
69369;SDS011;56530;42.640;23.372;2023-07-20T06:59:27;9.97;;;4.00;;
69369;SDS011;56530;42.640;23.372;2023-07-20T07:01:53;9.57;;;4.00;;
69369;SDS011;56530;42.640;23.372;2023-07-20T07:04:18;10.80;;;4.43;;
69369;SDS011;56530;42.640;23.372;2023-07-20T07:06:44;10.80;;;4.90;;
69369;SDS011;56530;42.640;23.372;2023-07-20T07:09:09;14.90;;;4.70;;
69369;SDS011;56530;42.640;23.372;2023-07-20T07:11:34;11.20;;;4.27;;
69369;SDS011;56530;42.640;23.372;2023-07-20T07:14:00;12.52;;;4.13;;
69369;SDS011;56530;42.640;23.372;2023-07-20T07:16:25;11.03;;;4.20;;
69369;SDS011;56530;42.640;23.372;2023-07-20T07:18:51;12.47;;;5.63;;
69369;SDS011;56530;42.640;23.372;2023-07-20T07:21:16;10.93;;;4.90;;
69369;SDS011;56530;42.640;23.372;2023-07-20T07:23:42;11.93;;;4.60;;
69369;SDS011;56530;42.640;23.372;2023-07-20T07:26:09;16.33;;;4.97;;
69369;SDS011;56530;42.640;23.372;2023-07-20T07:28:34;11.50;;;4.67;;
69369;SDS011;56530;42.640;23.372;2023-07-20T07:31:04;14.85;;;4.80;;
69369;SDS011;56530;42.640;23.372;2023-07-20T07:33:30;12.70;;;4.97;;
69369;SDS011;56530;42.640;23.372;2023-07-20T07:35:56;14.00;;;4.57;;
69369;SDS011;56530;42.640;23.372;2023-07-20T07:38:21;11.70;;;5.10;;
69369;SDS011;56530;42.640;23.372;2023-07-20T07:40:47;13.60;;;6.10;;
69369;SDS011;56530;42.640;23.372;2023-07-20T07:43:12;15.50;;;5.40;;
69369;SDS011;56530;42.640;23.372;2023-07-20T07:45:40;15.80;;;6.43;;
69369;SDS011;56530;42.640;23.372;2023-07-20T07:48:06;14.60;;;6.43;;
69369;SDS011;56530;42.640;23.372;2023-07-20T07:50:33;13.05;;;5.75;;
69369;SDS011;56530;42.640;23.372;2023-07-20T07:52:58;16.77;;;5.17;;
69369;SDS011;56530;42.640;23.372;2023-07-20T07:55:24;13.43;;;6.00;;
69369;SDS011;56530;42.640;23.372;2023-07-20T07:57:51;20.67;;;6.75;;
69369;SDS011;56530;42.640;23.372;2023-07-20T08:00:17;15.75;;;5.55;;
69369;SDS011;56530;42.640;23.372;2023-07-20T08:02:44;10.75;;;5.57;;
69369;SDS011;56530;42.640;23.372;2023-07-20T08:05:11;15.17;;;5.60;;
69369;SDS011;56530;42.640;23.372;2023-07-20T08:07:37;17.77;;;5.73;;
69369;SDS011;56530;42.640;23.372;2023-07-20T08:10:02;12.33;;;5.57;;
69369;SDS011;56530;42.640;23.372;2023-07-20T08:12:28;15.17;;;5.17;;
69369;SDS011;56530;42.640;23.372;2023-07-20T08:14:54;13.43;;;5.90;;
69369;SDS011;56530;42.640;23.372;2023-07-20T08:17:19;13.65;;;6.07;;
69369;SDS011;56530;42.640;23.372;2023-07-20T08:19:45;16.60;;;6.10;;
69369;SDS011;56530;42.640;23.372;2023-07-20T08:22:11;13.68;;;5.38;;
69369;SDS011;56530;42.640;23.372;2023-07-20T08:24:40;13.37;;;5.83;;
69369;SDS011;56530;42.640;23.372;2023-07-20T08:27:06;18.13;;;6.45;;
69369;SDS011;56530;42.640;23.372;2023-07-20T08:29:32;12.13;;;4.82;;
69369;SDS011;56530;42.640;23.372;2023-07-20T08:31:57;12.33;;;4.87;;
69369;SDS011;56530;42.640;23.372;2023-07-20T08:34:23;16.47;;;5.30;;
69369;SDS011;56530;42.640;23.372;2023-07-20T08:36:48;15.80;;;5.00;;
69369;SDS011;56530;42.640;23.372;2023-07-20T08:39:13;9.77;;;4.90;;
69369;SDS011;56530;42.640;23.372;2023-07-20T08:41:39;11.30;;;4.17;;
69369;SDS011;56530;42.640;23.372;2023-07-20T08:44:10;12.10;;;4.90;;
69369;SDS011;56530;42.640;23.372;2023-07-20T08:46:36;10.18;;;4.32;;
69369;SDS011;56530;42.640;23.372;2023-07-20T08:49:03;14.73;;;4.57;;
69369;SDS011;56530;42.640;23.372;2023-07-20T08:51:30;13.53;;;4.43;;
69369;SDS011;56530;42.640;23.372;2023-07-20T08:53:55;9.93;;;3.67;;
69369;SDS011;56530;42.640;23.372;2023-07-20T08:56:21;9.70;;;3.83;;
69369;SDS011;56530;42.640;23.372;2023-07-20T08:58:49;13.00;;;4.25;;
69369;SDS011;56530;42.640;23.372;2023-07-20T09:01:14;10.00;;;3.53;;
69369;SDS011;56530;42.640;23.372;2023-07-20T09:03:40;9.43;;;3.85;;
69369;SDS011;56530;42.640;23.372;2023-07-20T09:06:08;9.95;;;3.35;;
69369;SDS011;56530;42.640;23.372;2023-07-20T09:08:33;16.57;;;3.90;;
69369;SDS011;56530;42.640;23.372;2023-07-20T09:11:03;8.73;;;3.30;;
69369;SDS011;56530;42.640;23.372;2023-07-20T09:13:29;10.13;;;3.10;;
69369;SDS011;56530;42.640;23.372;2023-07-20T09:15:54;7.77;;;3.33;;
69369;SDS011;56530;42.640;23.372;2023-07-20T09:18:27;10.10;;;3.70;;
69369;SDS011;56530;42.640;23.372;2023-07-20T09:20:57;12.00;;;3.53;;
69369;SDS011;56530;42.640;23.372;2023-07-20T09:23:33;6.90;;;3.50;;
69369;SDS011;56530;42.640;23.372;2023-07-20T09:25:59;8.98;;;3.28;;
69369;SDS011;56530;42.640;23.372;2023-07-20T09:28:25;9.25;;;3.10;;
69369;SDS011;56530;42.640;23.372;2023-07-20T09:30:50;11.60;;;3.50;;
69369;SDS011;56530;42.640;23.372;2023-07-20T09:33:21;7.40;;;3.03;;
69369;SDS011;56530;42.640;23.372;2023-07-20T09:35:46;10.18;;;3.47;;
69369;SDS011;56530;42.640;23.372;2023-07-20T09:38:12;12.47;;;3.70;;
69369;SDS011;56530;42.640;23.372;2023-07-20T09:40:39;9.35;;;3.67;;
69369;SDS011;56530;42.640;23.372;2023-07-20T09:43:07;9.30;;;3.75;;
69369;SDS011;56530;42.640;23.372;2023-07-20T09:45:33;8.47;;;4.10;;
69369;SDS011;56530;42.640;23.372;2023-07-20T09:48:04;9.77;;;3.40;;
69369;SDS011;56530;42.640;23.372;2023-07-20T09:50:33;12.05;;;3.20;;
69369;SDS011;56530;42.640;23.372;2023-07-20T09:53:00;11.00;;;3.45;;
69369;SDS011;56530;42.640;23.372;2023-07-20T09:55:26;9.13;;;2.92;;
69369;SDS011;56530;42.640;23.372;2023-07-20T09:57:52;12.50;;;3.65;;
69369;SDS011;56530;42.640;23.372;2023-07-20T10:00:18;12.38;;;3.53;;
69369;SDS011;56530;42.640;23.372;2023-07-20T10:02:45;6.05;;;3.22;;
69369;SDS011;56530;42.640;23.372;2023-07-20T10:05:12;8.68;;;3.38;;
69369;SDS011;56530;42.640;23.372;2023-07-20T10:07:40;8.93;;;3.50;;
69369;SDS011;56530;42.640;23.372;2023-07-20T10:10:09;5.22;;;2.97;;
69369;SDS011;56530;42.640;23.372;2023-07-20T10:12:36;11.32;;;3.60;;
69369;SDS011;56530;42.640;23.372;2023-07-20T10:17:39;9.68;;;3.25;;
69369;SDS011;56530;42.640;23.372;2023-07-20T10:20:09;6.55;;;3.05;;
69369;SDS011;56530;42.640;23.372;2023-07-20T10:22:35;6.85;;;3.17;;
69369;SDS011;56530;42.640;23.372;2023-07-20T10:25:01;10.17;;;3.60;;
69369;SDS011;56530;42.640;23.372;2023-07-20T10:27:26;11.97;;;3.67;;
69369;SDS011;56530;42.640;23.372;2023-07-20T10:29:52;7.57;;;3.37;;
69369;SDS011;56530;42.640;23.372;2023-07-20T10:32:20;8.32;;;3.08;;
69369;SDS011;56530;42.640;23.372;2023-07-20T10:34:52;9.23;;;3.60;;
69369;SDS011;56530;42.640;23.372;2023-07-20T10:40:29;8.30;;;3.35;;
69369;SDS011;56530;42.640;23.372;2023-07-20T10:48:19;10.23;;;2.90;;
69369;SDS011;56530;42.640;23.372;2023-07-20T10:50:45;11.00;;;3.33;;
69369;SDS011;56530;42.640;23.372;2023-07-20T10:55:37;7.57;;;2.92;;
69369;SDS011;56530;42.640;23.372;2023-07-20T10:58:10;9.35;;;3.58;;
69369;SDS011;56530;42.640;23.372;2023-07-20T11:00:37;9.02;;;3.67;;
69369;SDS011;56530;42.640;23.372;2023-07-20T11:03:03;8.70;;;3.33;;
69369;SDS011;56530;42.640;23.372;2023-07-20T11:08:05;9.00;;;3.13;;
69369;SDS011;56530;42.640;23.372;2023-07-20T11:10:37;7.07;;;3.30;;
69369;SDS011;56530;42.640;23.372;2023-07-20T11:13:16;8.13;;;3.10;;
69369;SDS011;56530;42.640;23.372;2023-07-20T11:16:15;13.95;;;3.22;;
69369;SDS011;56530;42.640;23.372;2023-07-20T11:18:34;7.13;;;3.05;;
69369;SDS011;56530;42.640;23.372;2023-07-20T11:21:06;8.23;;;3.80;;
69369;SDS011;56530;42.640;23.372;2023-07-20T11:23:32;11.50;;;3.55;;
69369;SDS011;56530;42.640;23.372;2023-07-20T11:25:58;6.85;;;3.15;;
69369;SDS011;56530;42.640;23.372;2023-07-20T11:28:25;9.32;;;3.85;;
69369;SDS011;56530;42.640;23.372;2023-07-20T11:30:52;9.50;;;3.72;;
69369;SDS011;56530;42.640;23.372;2023-07-20T11:33:18;8.68;;;3.38;;
69369;SDS011;56530;42.640;23.372;2023-07-20T11:35:44;11.40;;;3.97;;
69369;SDS011;56530;42.640;23.372;2023-07-20T11:38:12;7.03;;;3.33;;
69369;SDS011;56530;42.640;23.372;2023-07-20T11:40:42;11.57;;;4.30;;
69369;SDS011;56530;42.640;23.372;2023-07-20T11:43:08;7.57;;;4.37;;
69369;SDS011;56530;42.640;23.372;2023-07-20T11:45:35;11.35;;;5.18;;
69369;SDS011;56530;42.640;23.372;2023-07-20T11:48:02;8.65;;;4.30;;
69369;SDS011;56530;42.640;23.372;2023-07-20T11:50:29;13.70;;;4.75;;
69369;SDS011;56530;42.640;23.372;2023-07-20T11:52:55;12.17;;;5.00;;
69369;SDS011;56530;42.640;23.372;2023-07-20T11:55:21;7.22;;;4.60;;
69369;SDS011;56530;42.640;23.372;2023-07-20T11:58:05;8.43;;;4.60;;
69369;SDS011;56530;42.640;23.372;2023-07-20T12:00:34;22.25;;;6.22;;
69369;SDS011;56530;42.640;23.372;2023-07-20T12:03:00;13.35;;;4.95;;
69369;SDS011;56530;42.640;23.372;2023-07-20T12:05:26;11.38;;;5.00;;
69369;SDS011;56530;42.640;23.372;2023-07-20T12:07:51;8.53;;;4.23;;
69369;SDS011;56530;42.640;23.372;2023-07-20T12:10:22;7.28;;;4.32;;
69369;SDS011;56530;42.640;23.372;2023-07-20T12:12:49;9.05;;;4.03;;
69369;SDS011;56530;42.640;23.372;2023-07-20T12:17:55;8.27;;;4.40;;
69369;SDS011;56530;42.640;23.372;2023-07-20T12:20:25;8.05;;;4.72;;
69369;SDS011;56530;42.640;23.372;2023-07-20T12:22:59;7.93;;;4.53;;
69369;SDS011;56530;42.640;23.372;2023-07-20T12:25:39;8.73;;;4.93;;
69369;SDS011;56530;42.640;23.372;2023-07-20T12:28:09;11.75;;;4.72;;
69369;SDS011;56530;42.640;23.372;2023-07-20T12:30:36;7.87;;;4.17;;
69369;SDS011;56530;42.640;23.372;2023-07-20T12:33:02;10.15;;;4.35;;
69369;SDS011;56530;42.640;23.372;2023-07-20T12:35:28;9.43;;;4.70;;
69369;SDS011;56530;42.640;23.372;2023-07-20T12:37:55;6.20;;;3.60;;
69369;SDS011;56530;42.640;23.372;2023-07-20T12:40:21;10.17;;;3.53;;
69369;SDS011;56530;42.640;23.372;2023-07-20T12:42:46;8.40;;;3.33;;
69369;SDS011;56530;42.640;23.372;2023-07-20T12:45:12;9.23;;;4.17;;
69369;SDS011;56530;42.640;23.372;2023-07-20T12:47:38;9.05;;;3.97;;
69369;SDS011;56530;42.640;23.372;2023-07-20T12:50:04;8.90;;;3.97;;
69369;SDS011;56530;42.640;23.372;2023-07-20T12:52:35;8.07;;;3.58;;
69369;SDS011;56530;42.640;23.372;2023-07-20T12:55:02;7.22;;;3.55;;
69369;SDS011;56530;42.640;23.372;2023-07-20T12:57:27;10.73;;;3.85;;
69369;SDS011;56530;42.640;23.372;2023-07-20T12:59:53;10.43;;;3.80;;
69369;SDS011;56530;42.640;23.372;2023-07-20T13:02:18;14.07;;;4.20;;
69369;SDS011;56530;42.640;23.372;2023-07-20T13:04:43;10.90;;;3.70;;
69369;SDS011;56530;42.640;23.372;2023-07-20T13:07:09;9.90;;;4.28;;
69369;SDS011;56530;42.640;23.372;2023-07-20T13:09:36;13.90;;;4.00;;
69369;SDS011;56530;42.640;23.372;2023-07-20T13:12:01;15.47;;;3.90;;
69369;SDS011;56530;42.640;23.372;2023-07-20T13:14:27;9.63;;;3.73;;
69369;SDS011;56530;42.640;23.372;2023-07-20T13:16:55;11.67;;;3.50;;
69369;SDS011;56530;42.640;23.372;2023-07-20T13:19:20;15.13;;;3.78;;
69369;SDS011;56530;42.640;23.372;2023-07-20T13:21:46;10.07;;;3.80;;
69369;SDS011;56530;42.640;23.372;2023-07-20T13:24:11;8.75;;;3.55;;
69369;SDS011;56530;42.640;23.372;2023-07-20T13:26:37;6.50;;;3.17;;
69369;SDS011;56530;42.640;23.372;2023-07-20T13:29:02;12.47;;;3.30;;
69369;SDS011;56530;42.640;23.372;2023-07-20T13:31:28;11.95;;;3.72;;
69369;SDS011;56530;42.640;23.372;2023-07-20T13:33:54;7.30;;;3.08;;
69369;SDS011;56530;42.640;23.372;2023-07-20T13:36:20;9.73;;;3.60;;
69369;SDS011;56530;42.640;23.372;2023-07-20T13:38:46;7.90;;;3.58;;
69369;SDS011;56530;42.640;23.372;2023-07-20T13:41:13;9.30;;;3.38;;
69369;SDS011;56530;42.640;23.372;2023-07-20T13:43:40;11.52;;;4.03;;
69369;SDS011;56530;42.640;23.372;2023-07-20T13:46:05;8.40;;;3.53;;
69369;SDS011;56530;42.640;23.372;2023-07-20T13:48:31;7.93;;;3.00;;
69369;SDS011;56530;42.640;23.372;2023-07-20T13:50:56;11.73;;;3.47;;
69369;SDS011;56530;42.640;23.372;2023-07-20T13:53:21;8.88;;;3.47;;
69369;SDS011;56530;42.640;23.372;2023-07-20T13:55:47;9.52;;;3.17;;
69369;SDS011;56530;42.640;23.372;2023-07-20T13:58:13;9.70;;;3.40;;
69369;SDS011;56530;42.640;23.372;2023-07-20T14:00:38;10.50;;;3.43;;
69369;SDS011;56530;42.640;23.372;2023-07-20T14:03:04;7.97;;;3.57;;
69369;SDS011;56530;42.640;23.372;2023-07-20T14:05:29;6.80;;;3.13;;
69369;SDS011;56530;42.640;23.372;2023-07-20T14:07:54;9.20;;;3.03;;
69369;SDS011;56530;42.640;23.372;2023-07-20T14:10:20;8.90;;;3.30;;
69369;SDS011;56530;42.640;23.372;2023-07-20T14:12:45;6.35;;;3.15;;
69369;SDS011;56530;42.640;23.372;2023-07-20T14:15:11;9.90;;;3.23;;
69369;SDS011;56530;42.640;23.372;2023-07-20T14:17:36;10.40;;;3.50;;
69369;SDS011;56530;42.640;23.372;2023-07-20T14:20:02;9.40;;;3.43;;
69369;SDS011;56530;42.640;23.372;2023-07-20T14:22:30;11.63;;;3.30;;
69369;SDS011;56530;42.640;23.372;2023-07-20T14:24:56;9.60;;;3.13;;
69369;SDS011;56530;42.640;23.372;2023-07-20T14:27:21;12.23;;;3.40;;
69369;SDS011;56530;42.640;23.372;2023-07-20T14:29:46;13.10;;;3.67;;
69369;SDS011;56530;42.640;23.372;2023-07-20T14:32:14;9.98;;;3.40;;
69369;SDS011;56530;42.640;23.372;2023-07-20T14:34:39;10.90;;;3.50;;
69369;SDS011;56530;42.640;23.372;2023-07-20T14:37:06;7.80;;;3.10;;
69369;SDS011;56530;42.640;23.372;2023-07-20T14:39:31;13.48;;;3.70;;
69369;SDS011;56530;42.640;23.372;2023-07-20T14:41:57;7.50;;;3.13;;
69369;SDS011;56530;42.640;23.372;2023-07-20T14:44:22;8.63;;;3.03;;
69369;SDS011;56530;42.640;23.372;2023-07-20T14:46:48;13.53;;;3.87;;
69369;SDS011;56530;42.640;23.372;2023-07-20T14:49:13;7.37;;;3.23;;
69369;SDS011;56530;42.640;23.372;2023-07-20T14:51:38;11.20;;;3.67;;
69369;SDS011;56530;42.640;23.372;2023-07-20T14:54:08;15.88;;;3.70;;
69369;SDS011;56530;42.640;23.372;2023-07-20T14:56:34;17.47;;;4.50;;